createdAt,value
2019-03-02T00:00:02.309Z,23.42
2019-03-02T00:01:09.700Z,20.15
2019-03-02T00:02:14.205Z,17.52
2019-03-02T00:03:19.366Z,26.75
2019-03-02T00:04:30.498Z,20.48
2019-03-02T00:05:38.325Z,23.20
2019-03-02T00:06:43.315Z,17.32
2019-03-02T00:07:48.857Z,20.88
2019-03-02T00:08:56.768Z,20.17
2019-03-02T00:10:10.923Z,19.12
2019-03-02T00:11:17.910Z,18.25
2019-03-02T00:12:22.364Z,25.17
2019-03-02T00:13:31.262Z,18.95
2019-03-02T00:14:41.334Z,18.92
2019-03-02T00:15:46.490Z,21.65
2019-03-02T00:16:52.755Z,19.00
2019-03-02T00:17:57.622Z,19.70
2019-03-02T00:19:10.323Z,21.00
2019-03-02T00:20:18.136Z,18.35
2019-03-02T00:21:21.686Z,24.77
2019-03-02T00:22:26.574Z,20.52
2019-03-02T00:23:31.642Z,19.05
2019-03-02T00:24:36.749Z,17.45
2019-03-02T00:25:45.698Z,17.48
2019-03-02T00:26:51.942Z,19.75
2019-03-02T00:27:58.119Z,20.45
2019-03-02T00:29:11.014Z,17.42
2019-03-02T00:30:17.762Z,22.17
2019-03-02T00:31:24.987Z,24.63
2019-03-02T00:32:29.983Z,25.92
2019-03-02T00:33:35.090Z,20.52
2019-03-02T00:34:42.375Z,21.10
2019-03-02T00:35:49.969Z,20.80
2019-03-02T00:36:58.473Z,25.00
2019-03-02T00:38:05.014Z,38.75
2019-03-02T00:39:09.239Z,21.82
2019-03-02T00:40:16.969Z,19.95
2019-03-02T00:41:21.880Z,20.50
2019-03-02T00:42:26.774Z,20.92
2019-03-02T00:43:31.943Z,22.93
2019-03-02T00:44:39.427Z,27.75
2019-03-02T00:45:45.919Z,21.95
2019-03-02T00:46:50.827Z,32.30
2019-03-02T00:47:55.638Z,26.68
2019-03-02T00:49:01.250Z,23.92
2019-03-02T00:50:15.866Z,25.62
2019-03-02T00:51:26.174Z,25.10
2019-03-02T00:52:31.171Z,23.77
2019-03-02T00:53:36.662Z,34.15
2019-03-02T00:54:43.351Z,27.50
2019-03-02T00:55:48.447Z,23.30
2019-03-02T00:56:55.490Z,28.35
2019-03-02T00:58:00.376Z,26.80
2019-03-02T00:59:05.389Z,29.15
2019-03-02T01:00:15.267Z,23.70
2019-03-02T01:01:19.453Z,24.90
2019-03-02T01:02:24.741Z,24.43
2019-03-02T01:03:33.574Z,24.65
2019-03-02T01:04:38.526Z,24.07
2019-03-02T01:05:47.414Z,29.95
2019-03-02T01:06:52.799Z,24.80
2019-03-02T01:07:59.771Z,27.00
2019-03-02T01:09:11.684Z,26.27
2019-03-02T01:10:19.122Z,28.62
2019-03-02T01:11:23.250Z,24.30
2019-03-02T01:12:28.300Z,31.93
2019-03-02T01:13:33.242Z,24.80
2019-03-02T01:14:38.125Z,29.35
2019-03-02T01:15:46.096Z,28.23
2019-03-02T01:16:55.195Z,39.40
2019-03-02T01:18:03.726Z,29.45
2019-03-02T01:19:14.598Z,30.02
2019-03-02T01:20:19.402Z,25.23
2019-03-02T01:21:24.208Z,27.77
2019-03-02T01:22:29.548Z,29.85
2019-03-02T01:23:34.348Z,34.65
2019-03-02T01:24:39.711Z,26.20
2019-03-02T01:25:45.504Z,30.55
2019-03-02T01:26:51.103Z,28.50
2019-03-02T01:27:55.966Z,29.05
2019-03-02T01:29:03.007Z,26.85
2019-03-02T01:30:13.935Z,29.75
2019-03-02T01:31:18.754Z,26.17
2019-03-02T01:32:26.290Z,29.20
2019-03-02T01:33:34.101Z,26.27
2019-03-02T01:34:42.097Z,27.60
2019-03-02T01:35:45.471Z,32.58
2019-03-02T01:36:50.431Z,34.18
2019-03-02T01:37:55.203Z,24.82
2019-03-02T01:39:01.988Z,35.78
2019-03-02T01:40:08.002Z,29.30
2019-03-02T01:41:14.046Z,31.17
2019-03-02T01:42:22.086Z,33.25
2019-03-02T01:43:27.670Z,32.42
2019-03-02T01:44:32.422Z,32.08
2019-03-02T01:45:37.272Z,29.95
2019-03-02T01:46:42.045Z,33.15
2019-03-02T01:47:50.581Z,35.33
2019-03-02T01:48:53.411Z,29.98
2019-03-02T01:49:58.286Z,33.00
2019-03-02T01:51:03.054Z,29.35
2019-03-02T01:52:11.854Z,35.50
2019-03-02T01:53:16.658Z,34.30
2019-03-02T01:54:22.080Z,37.00
2019-03-02T01:55:27.802Z,37.35
2019-03-02T01:56:33.400Z,36.05
2019-03-02T01:57:38.316Z,36.25
2019-03-02T01:58:43.392Z,32.35
2019-03-02T01:59:48.186Z,37.00
2019-03-02T02:00:53.586Z,33.25
2019-03-02T02:02:00.157Z,38.00
2019-03-02T02:03:08.444Z,33.50
2019-03-02T02:04:13.687Z,35.92
2019-03-02T02:05:18.539Z,37.33
2019-03-02T02:06:23.449Z,35.63
2019-03-02T02:07:28.247Z,40.58
2019-03-02T02:08:33.310Z,38.17
2019-03-02T02:09:40.598Z,42.10
2019-03-02T02:10:44.532Z,44.40
2019-03-02T02:11:49.759Z,39.42
2019-03-02T02:12:55.738Z,36.25
2019-03-02T02:14:03.007Z,36.93
2019-03-02T02:15:09.847Z,36.55
2019-03-02T02:16:14.635Z,39.83
2019-03-02T02:17:20.450Z,35.80
2019-03-02T02:18:27.666Z,38.08
2019-03-02T02:19:34.707Z,37.03
2019-03-02T02:20:41.167Z,41.53
2019-03-02T02:21:46.009Z,38.48
2019-03-02T02:22:50.826Z,45.25
2019-03-02T02:23:55.652Z,38.65
2019-03-02T02:25:01.691Z,37.30
2019-03-02T02:26:07.743Z,38.33
2019-03-02T02:27:13.611Z,37.03
2019-03-02T02:28:18.397Z,42.15
2019-03-02T02:29:23.150Z,36.90
2019-03-02T02:30:28.409Z,37.33
2019-03-02T02:31:44.518Z,44.90
2019-03-02T02:32:45.710Z,38.40
2019-03-02T02:33:50.612Z,43.55
2019-03-02T02:34:56.566Z,38.98
2019-03-02T02:36:07.233Z,51.85
2019-03-02T02:37:12.629Z,39.42
2019-03-02T02:38:20.272Z,44.90
2019-03-02T02:39:28.902Z,46.40
2019-03-02T02:40:31.633Z,45.08
2019-03-02T02:41:36.473Z,45.40
2019-03-02T02:42:43.435Z,46.35
2019-03-02T02:43:47.701Z,42.08
2019-03-02T02:44:52.471Z,47.98
2019-03-02T02:45:57.228Z,41.20
2019-03-02T02:47:02.259Z,43.55
2019-03-02T02:48:07.190Z,47.25
2019-03-02T02:49:12.233Z,42.43
2019-03-02T02:50:17.430Z,39.88
2019-03-02T02:51:22.353Z,40.38
2019-03-02T02:52:30.291Z,50.65
2019-03-02T02:53:35.034Z,64.65
2019-03-02T02:54:40.004Z,41.70
2019-03-02T02:55:44.856Z,47.25
2019-03-02T02:56:54.084Z,44.85
2019-03-02T02:57:56.356Z,42.83
2019-03-02T02:59:01.781Z,47.90
2019-03-02T03:00:18.603Z,44.50
2019-03-02T03:01:23.375Z,49.77
2019-03-02T03:02:28.155Z,45.08
2019-03-02T03:03:33.020Z,46.35
2019-03-02T03:04:38.294Z,44.13
2019-03-02T03:05:43.172Z,50.78
2019-03-02T03:06:48.334Z,46.10
2019-03-02T03:07:55.578Z,45.65
2019-03-02T03:08:59.570Z,44.40
2019-03-02T03:10:14.574Z,50.60
2019-03-02T03:11:19.237Z,49.13
2019-03-02T03:12:24.874Z,49.48
2019-03-02T03:13:30.124Z,46.70
2019-03-02T03:14:34.943Z,48.65
2019-03-02T03:15:44.716Z,44.75
2019-03-02T03:16:53.744Z,45.58
2019-03-02T03:17:55.951Z,42.05
2019-03-02T03:19:01.128Z,46.83
2019-03-02T03:20:10.614Z,54.10
2019-03-02T03:21:12.620Z,48.05
2019-03-02T03:22:17.490Z,52.53
2019-03-02T03:23:24.769Z,48.13
2019-03-02T03:24:28.634Z,46.68
2019-03-02T03:25:34.009Z,50.40
2019-03-02T03:26:39.287Z,43.15
2019-03-02T03:27:47.454Z,45.98
2019-03-02T03:28:50.499Z,54.45
2019-03-02T03:29:55.271Z,41.83
2019-03-02T03:31:00.064Z,41.20
2019-03-02T03:32:09.388Z,48.68
2019-03-02T03:33:11.807Z,47.17
2019-03-02T03:34:29.175Z,43.20
2019-03-02T03:35:23.041Z,42.00
2019-03-02T03:36:30.183Z,42.65
2019-03-02T03:37:34.283Z,43.80
2019-03-02T03:38:39.315Z,57.15
2019-03-02T03:39:46.356Z,50.23
2019-03-02T03:40:50.527Z,45.23
2019-03-02T03:41:55.299Z,46.05
2019-03-02T03:43:03.205Z,50.17
2019-03-02T03:44:06.481Z,45.92
2019-03-02T03:45:12.457Z,50.05
2019-03-02T03:46:22.442Z,45.85
2019-03-02T03:47:23.582Z,48.80
2019-03-02T03:48:28.393Z,51.05
2019-03-02T03:49:34.225Z,46.45
2019-03-02T03:50:40.680Z,50.63
2019-03-02T03:51:45.484Z,49.20
2019-03-02T03:52:50.520Z,49.73
2019-03-02T03:54:01.683Z,52.13
2019-03-02T03:55:03.711Z,50.38
2019-03-02T03:56:08.495Z,49.10
2019-03-02T03:57:17.084Z,47.95
2019-03-02T03:58:19.828Z,46.28
2019-03-02T03:59:24.713Z,46.92
2019-03-02T04:00:34.413Z,51.83
2019-03-02T04:01:36.455Z,43.85
2019-03-02T04:02:41.400Z,48.02
2019-03-02T04:03:51.359Z,51.83
2019-03-02T04:04:53.371Z,62.48
2019-03-02T04:05:58.397Z,43.00
2019-03-02T04:07:06.279Z,50.08
2019-03-02T04:08:09.853Z,47.65
2019-03-02T04:09:14.628Z,43.10
2019-03-02T04:10:25.991Z,48.52
2019-03-02T04:11:25.912Z,47.38
2019-03-02T04:12:30.744Z,52.08
2019-03-02T04:13:44.135Z,44.70
2019-03-02T04:14:41.886Z,52.98
2019-03-02T04:15:46.636Z,49.67
2019-03-02T04:16:55.831Z,45.73
2019-03-02T04:17:58.468Z,52.13
2019-03-02T04:19:03.605Z,46.92
2019-03-02T04:20:12.609Z,57.23
2019-03-02T04:21:18.310Z,56.05
2019-03-02T04:24:30.291Z,45.90
2019-03-02T04:25:35.061Z,47.35
2019-03-02T04:26:40.291Z,42.73
2019-03-02T04:27:53.166Z,54.45
2019-03-02T04:28:51.465Z,45.48
2019-03-02T04:29:56.266Z,45.52
2019-03-02T04:31:04.697Z,47.93
2019-03-02T04:32:07.555Z,47.33
2019-03-02T04:33:12.301Z,45.88
2019-03-02T04:34:21.307Z,49.60
2019-03-02T04:35:23.819Z,42.80
2019-03-02T04:36:28.550Z,43.38
2019-03-02T04:37:33.309Z,45.55
2019-03-02T04:38:38.200Z,44.40
2019-03-02T04:39:46.351Z,42.20
2019-03-02T04:40:49.526Z,48.25
2019-03-02T04:41:54.270Z,50.08
2019-03-02T04:42:59.057Z,52.50
2019-03-02T04:44:03.780Z,50.73
2019-03-02T04:45:09.168Z,44.90
2019-03-02T04:46:15.409Z,45.08
2019-03-02T04:47:22.446Z,44.50
2019-03-02T04:48:27.082Z,44.98
2019-03-02T04:49:31.831Z,46.75
2019-03-02T04:50:36.601Z,51.75
2019-03-02T04:51:41.940Z,56.60
2019-03-02T04:52:50.019Z,44.13
2019-03-02T04:53:53.525Z,47.58
2019-03-02T04:54:58.272Z,45.48
2019-03-02T04:56:02.975Z,56.88
2019-03-02T04:57:07.928Z,56.73
2019-03-02T04:58:12.939Z,47.53
2019-03-02T04:59:18.713Z,44.50
2019-03-02T05:00:28.601Z,45.10
2019-03-02T05:01:30.703Z,47.30
2019-03-02T05:02:35.487Z,45.40
2019-03-02T05:03:40.229Z,43.70
2019-03-02T05:04:44.972Z,42.13
2019-03-02T05:05:49.825Z,46.08
2019-03-02T05:06:55.656Z,47.80
2019-03-02T05:08:01.931Z,44.42
2019-03-02T05:09:08.582Z,45.63
2019-03-02T05:10:13.296Z,45.33
2019-03-02T05:11:18.058Z,48.98
2019-03-02T05:12:22.840Z,42.88
2019-03-02T05:13:28.362Z,50.08
2019-03-02T05:14:36.777Z,49.05
2019-03-02T05:15:40.757Z,40.23
2019-03-02T05:16:46.912Z,38.60
2019-03-02T05:17:51.682Z,38.45
2019-03-02T05:18:56.669Z,46.50
2019-03-02T05:20:04.901Z,45.48
2019-03-02T05:21:08.179Z,48.28
2019-03-02T05:22:15.542Z,43.02
2019-03-02T05:23:21.194Z,47.27
2019-03-02T05:24:25.961Z,39.20
2019-03-02T05:25:30.739Z,43.65
2019-03-02T05:26:35.845Z,44.85
2019-03-02T05:27:41.168Z,46.37
2019-03-02T05:28:46.101Z,55.00
2019-03-02T05:29:54.409Z,46.55
2019-03-02T05:31:02.728Z,39.95
2019-03-02T05:32:06.202Z,47.25
2019-03-02T05:33:10.969Z,42.70
2019-03-02T05:34:15.782Z,45.12
2019-03-02T05:35:20.878Z,44.05
2019-03-02T05:36:26.843Z,46.35
2019-03-02T05:37:34.990Z,49.67
2019-03-02T05:38:38.373Z,39.13
2019-03-02T05:39:43.266Z,50.43
2019-03-02T05:40:47.980Z,44.67
2019-03-02T05:41:53.255Z,46.63
2019-03-02T05:42:58.037Z,43.50
2019-03-02T05:44:02.773Z,41.42
2019-03-02T05:45:07.568Z,53.80
2019-03-02T05:46:12.314Z,45.15
2019-03-02T05:47:17.078Z,56.90
2019-03-02T05:48:22.543Z,49.38
2019-03-02T05:49:27.352Z,42.48
2019-03-02T05:50:32.201Z,49.25
2019-03-02T05:51:38.865Z,39.65
2019-03-02T05:52:43.788Z,42.40
2019-03-02T05:53:48.909Z,50.95
2019-03-02T05:54:53.856Z,46.77
2019-03-02T05:55:58.734Z,46.25
2019-03-02T05:57:08.599Z,40.85
2019-03-02T05:58:15.836Z,49.20
2019-03-02T05:59:22.889Z,54.05
2019-03-02T06:00:26.129Z,51.28
2019-03-02T06:01:30.948Z,43.23
2019-03-02T06:02:35.825Z,48.92
2019-03-02T06:03:42.571Z,47.48
2019-03-02T06:04:47.553Z,49.27
2019-03-02T06:05:52.280Z,46.50
2019-03-02T06:06:57.068Z,58.55
2019-03-02T06:08:01.841Z,49.70
2019-03-02T06:09:14.635Z,48.98
2019-03-02T06:10:21.690Z,45.17
2019-03-02T06:11:25.861Z,50.28
2019-03-02T06:12:30.853Z,50.73
2019-03-02T06:13:35.836Z,52.17
2019-03-02T06:14:40.568Z,54.15
2019-03-02T06:15:47.836Z,53.87
2019-03-02T06:16:53.848Z,54.30
2019-03-02T06:17:58.999Z,51.15
2019-03-02T06:19:03.732Z,43.33
2019-03-02T06:20:09.021Z,49.08
2019-03-02T06:21:22.319Z,48.87
2019-03-02T06:22:27.165Z,46.85
2019-03-02T06:23:32.476Z,52.17
2019-03-02T06:24:37.672Z,49.48
2019-03-02T06:25:47.202Z,48.73
2019-03-02T06:26:52.481Z,42.25
2019-03-02T06:27:58.463Z,44.77
2019-03-02T06:29:03.856Z,43.80
2019-03-02T06:30:10.230Z,45.43
2019-03-02T06:31:15.801Z,44.58
2019-03-02T06:32:26.037Z,55.98
2019-03-02T06:33:36.097Z,50.48
2019-03-02T06:34:41.299Z,43.90
2019-03-02T06:35:46.787Z,48.85
2019-03-02T06:36:53.141Z,46.42
2019-03-02T06:37:59.289Z,43.90
2019-03-02T06:39:07.840Z,49.80
2019-03-02T06:40:11.384Z,43.70
2019-03-02T06:41:16.401Z,46.05
2019-03-02T06:42:21.344Z,43.92
2019-03-02T06:43:26.344Z,44.20
2019-03-02T06:44:34.191Z,46.48
2019-03-02T06:45:40.534Z,46.50
2019-03-02T06:46:43.923Z,43.73
2019-03-02T06:47:48.643Z,44.08
2019-03-02T06:48:53.405Z,48.50
2019-03-02T06:49:59.364Z,50.65
2019-03-02T06:51:07.829Z,56.63
2019-03-02T06:52:11.692Z,52.17
2019-03-02T06:53:17.959Z,63.83
2019-03-02T06:54:23.182Z,52.80
2019-03-02T06:55:31.256Z,47.45
2019-03-02T06:56:39.317Z,46.77
2019-03-02T06:57:46.071Z,47.98
2019-03-02T06:58:49.306Z,48.05
2019-03-02T06:59:54.288Z,53.38
2019-03-02T07:00:59.332Z,56.88
2019-03-02T07:02:06.695Z,53.92
2019-03-02T07:03:11.529Z,44.20
2019-03-02T07:04:18.055Z,51.48
2019-03-02T07:05:22.919Z,48.50
2019-03-02T07:06:27.813Z,43.28
2019-03-02T07:07:32.558Z,39.98
2019-03-02T07:08:39.763Z,52.08
2019-03-02T07:09:46.166Z,47.30
2019-03-02T07:10:51.038Z,47.17
2019-03-02T07:11:56.369Z,42.33
2019-03-02T07:13:02.352Z,45.33
2019-03-02T07:14:07.489Z,38.10
2019-03-02T07:15:14.518Z,42.60
2019-03-02T07:16:20.053Z,46.18
2019-03-02T07:17:51.046Z,43.83
2019-03-02T07:19:13.419Z,41.70
2019-03-02T07:20:23.932Z,45.52
2019-03-02T07:21:27.315Z,48.30
2019-03-02T07:22:32.322Z,47.05
2019-03-02T07:23:37.178Z,44.77
2019-03-02T07:24:41.970Z,58.83
2019-03-02T07:25:47.349Z,62.53
2019-03-02T07:26:54.632Z,392.65
2019-03-02T07:28:01.949Z,283.95
2019-03-02T07:29:05.248Z,209.40
2019-03-02T07:30:10.324Z,129.30
2019-03-02T07:31:15.290Z,150.35
2019-03-02T07:32:21.005Z,116.60
2019-03-02T07:33:25.916Z,97.20
2019-03-02T07:34:31.460Z,78.57
2019-03-02T07:35:36.228Z,76.30
2019-03-02T07:36:41.124Z,58.63
2019-03-02T07:37:47.545Z,70.90
2019-03-02T07:38:53.086Z,114.77
2019-03-02T07:39:59.329Z,197.32
2019-03-02T07:41:04.324Z,92.53
2019-03-02T07:42:09.346Z,134.90
2019-03-02T07:43:14.290Z,324.85
2019-03-02T07:44:22.235Z,96.60
2019-03-02T07:45:27.162Z,59.73
2019-03-02T07:46:35.144Z,75.32
2019-03-02T07:47:39.886Z,89.55
2019-03-02T07:48:44.663Z,79.72
2019-03-02T07:49:49.917Z,62.65
2019-03-02T07:50:55.510Z,110.22
2019-03-02T07:52:02.803Z,132.78
2019-03-02T07:53:07.785Z,73.37
2019-03-02T07:54:15.140Z,56.60
2019-03-02T07:55:22.378Z,54.20
2019-03-02T07:56:29.568Z,55.80
2019-03-02T07:57:32.864Z,53.28
2019-03-02T07:58:38.034Z,77.90
2019-03-02T07:59:44.974Z,60.85
2019-03-02T08:00:49.802Z,53.08
2019-03-02T08:01:54.648Z,47.90
2019-03-02T08:03:00.915Z,50.08
2019-03-02T08:04:05.952Z,44.10
2019-03-02T08:05:14.355Z,46.65
2019-03-02T08:06:22.009Z,45.40
2019-03-02T08:07:27.577Z,42.65
2019-03-02T08:08:32.731Z,55.65
2019-03-02T08:09:37.672Z,49.58
2019-03-02T08:10:49.996Z,43.80
2019-03-02T08:11:55.114Z,44.45
2019-03-02T08:13:00.848Z,38.98
2019-03-02T08:14:08.839Z,46.95
2019-03-02T08:15:15.709Z,44.18
2019-03-02T08:16:21.939Z,45.08
2019-03-02T08:17:28.054Z,49.27
2019-03-02T08:18:32.970Z,43.17
2019-03-02T08:19:39.804Z,43.30
2019-03-02T08:20:44.731Z,42.27
2019-03-02T08:21:49.681Z,38.83
2019-03-02T08:22:54.861Z,39.35
2019-03-02T08:23:59.697Z,47.45
2019-03-02T08:25:05.348Z,39.85
2019-03-02T08:26:10.264Z,44.03
2019-03-02T08:27:15.265Z,44.20
2019-03-02T08:28:20.302Z,38.85
2019-03-02T08:29:27.399Z,41.45
2019-03-02T08:32:07.286Z,40.33
2019-03-02T08:33:22.458Z,40.43
2019-03-02T08:34:33.091Z,39.35
2019-03-02T08:35:52.359Z,35.80
2019-03-02T08:37:04.047Z,44.08
2019-03-02T08:38:22.494Z,43.65
2019-03-02T08:39:35.692Z,46.70
2019-03-02T08:40:51.090Z,49.88
2019-03-02T08:42:29.796Z,47.80
2019-03-02T08:43:38.261Z,45.30
2019-03-02T08:44:43.890Z,53.90
2019-03-02T08:45:49.322Z,44.25
2019-03-02T08:46:57.695Z,38.55
2019-03-02T08:48:02.900Z,42.48
2019-03-02T08:49:08.968Z,45.03
2019-03-02T08:50:17.520Z,45.55
2019-03-02T08:51:22.308Z,47.48
2019-03-02T08:52:27.604Z,67.58
2019-03-02T08:53:32.394Z,99.62
2019-03-02T08:54:37.180Z,74.35
2019-03-02T08:55:45.036Z,55.78
2019-03-02T08:56:52.528Z,59.63
2019-03-02T08:57:58.938Z,53.38
2019-03-02T08:59:04.371Z,56.18
2019-03-02T09:00:14.230Z,47.67
2019-03-02T09:01:20.348Z,56.40
2019-03-02T09:02:27.173Z,49.30
2019-03-02T09:03:37.330Z,46.18
2019-03-02T09:04:41.680Z,46.15
2019-03-02T09:05:56.204Z,50.52
2019-03-02T09:07:11.409Z,49.98
2019-03-02T09:08:10.716Z,41.53
2019-03-02T09:09:17.233Z,45.30
2019-03-02T09:10:27.297Z,48.78
2019-03-02T09:11:36.968Z,51.18
2019-03-02T09:13:20.578Z,51.05
2019-03-02T09:14:32.674Z,45.38
2019-03-02T09:16:09.780Z,44.45
2019-03-02T09:18:03.394Z,43.95
2019-03-02T09:19:11.309Z,44.88
2019-03-02T09:20:24.440Z,40.60
2019-03-02T09:21:40.199Z,53.30
2019-03-02T09:22:51.375Z,50.20
2019-03-02T09:24:05.305Z,58.33
2019-03-02T09:25:17.260Z,50.48
2019-03-02T09:26:27.219Z,44.90
2019-03-02T09:27:40.213Z,49.73
2019-03-02T09:28:45.349Z,48.52
2019-03-02T09:29:51.714Z,47.95
2019-03-02T09:30:58.857Z,50.45
2019-03-02T09:32:11.009Z,44.73
2019-03-02T09:33:29.890Z,44.18
2019-03-02T09:34:43.416Z,53.95
2019-03-02T09:35:55.009Z,45.40
2019-03-02T09:37:07.016Z,46.25
2019-03-02T09:38:42.281Z,53.63
2019-03-02T09:39:55.379Z,43.63
2019-03-02T09:42:01.497Z,43.28
2019-03-02T09:43:16.203Z,47.35
2019-03-02T09:44:21.778Z,47.58
2019-03-02T09:45:28.276Z,48.38
2019-03-02T09:46:33.198Z,49.15
2019-03-02T09:47:47.640Z,46.30
2019-03-02T09:48:56.921Z,46.08
2019-03-02T09:50:09.992Z,50.43
2019-03-02T09:51:17.783Z,47.15
2019-03-02T09:52:25.175Z,46.88
2019-03-02T09:53:30.581Z,45.60
2019-03-02T09:54:36.027Z,48.90
2019-03-02T09:55:43.007Z,49.73
2019-03-02T09:57:11.378Z,53.13
2019-03-02T09:58:24.094Z,56.23
2019-03-02T09:59:26.932Z,42.05
2019-03-02T10:00:35.863Z,55.63
2019-03-02T10:01:48.045Z,52.70
2019-03-02T10:02:56.344Z,47.67
2019-03-02T10:04:06.136Z,47.83
2019-03-02T10:05:11.482Z,48.05
2019-03-02T10:06:21.826Z,48.25
2019-03-02T10:07:27.491Z,56.90
2019-03-02T10:08:34.100Z,49.98
2019-03-02T10:09:39.206Z,52.48
2019-03-02T10:10:48.597Z,51.10
2019-03-02T10:11:59.267Z,48.13
2019-03-02T10:13:09.231Z,48.55
2019-03-02T10:14:28.187Z,54.08
2019-03-02T10:15:41.146Z,45.25
2019-03-02T10:16:54.285Z,50.45
2019-03-02T10:18:20.814Z,48.55
2019-03-02T10:19:30.128Z,43.20
2019-03-02T10:20:38.932Z,48.55
2019-03-02T10:21:50.449Z,44.38
2019-03-02T10:23:02.129Z,44.48
2019-03-02T10:24:13.540Z,51.75
2019-03-02T10:25:18.192Z,48.75
2019-03-02T10:26:24.180Z,49.23
2019-03-02T10:27:35.318Z,55.30
2019-03-02T10:28:40.713Z,44.38
2019-03-02T10:29:51.617Z,55.30
2019-03-02T10:30:57.735Z,43.87
2019-03-02T10:32:04.480Z,46.23
2019-03-02T10:33:10.198Z,46.92
2019-03-02T10:34:17.241Z,44.95
2019-03-02T10:35:29.846Z,41.55
2019-03-02T10:36:37.209Z,50.55
2019-03-02T10:37:42.576Z,44.67
2019-03-02T10:38:51.784Z,43.40
2019-03-02T10:39:54.848Z,46.33
2019-03-02T10:40:59.718Z,46.08
2019-03-02T10:42:05.387Z,40.88
2019-03-02T10:43:10.679Z,41.70
2019-03-02T10:44:17.823Z,44.45
2019-03-02T10:45:35.644Z,49.67
2019-03-02T10:46:42.195Z,46.33
2019-03-02T10:48:07.885Z,41.25
2019-03-02T10:49:13.318Z,50.48
2019-03-02T10:50:23.411Z,43.60
2019-03-02T10:51:26.981Z,50.00
2019-03-02T10:52:32.182Z,47.62
2019-03-02T10:53:37.080Z,51.33
2019-03-02T10:54:42.444Z,50.35
2019-03-02T10:55:48.255Z,41.70
2019-03-02T10:56:59.796Z,53.33
2019-03-02T10:58:04.880Z,55.25
2019-03-02T10:59:11.972Z,55.63
2019-03-02T11:00:29.453Z,52.48
2019-03-02T11:01:34.111Z,43.87
2019-03-02T11:02:39.087Z,57.25
2019-03-02T11:03:43.978Z,49.08
2019-03-02T11:05:22.585Z,47.60
2019-03-02T11:06:46.719Z,44.93
2019-03-02T11:08:13.397Z,48.10
2019-03-02T11:09:26.481Z,51.02
2019-03-02T11:10:48.779Z,47.60
2019-03-02T11:12:10.450Z,43.40
2019-03-02T11:13:26.786Z,53.73
2019-03-02T11:14:52.331Z,50.55
2019-03-02T11:16:25.442Z,73.33
2019-03-02T11:17:55.638Z,53.08
2019-03-02T11:19:38.228Z,45.52
2019-03-02T11:21:09.025Z,37.63
2019-03-02T11:22:38.192Z,42.85
2019-03-02T11:23:57.562Z,48.80
2019-03-02T11:25:19.518Z,47.13
2019-03-02T11:26:37.495Z,44.10
2019-03-02T11:28:04.198Z,46.55
2019-03-02T11:29:33.868Z,46.25
2019-03-02T11:30:55.901Z,41.85
2019-03-02T11:32:20.307Z,48.28
2019-03-02T11:33:47.533Z,46.30
2019-03-02T11:35:12.191Z,40.05
2019-03-02T11:36:41.717Z,45.90
2019-03-02T11:38:11.258Z,42.13
2019-03-02T11:39:21.135Z,42.13
2019-03-02T11:40:48.230Z,40.85
2019-03-02T11:41:58.446Z,42.75
2019-03-02T11:43:34.190Z,35.60
2019-03-02T11:45:02.990Z,37.08
2019-03-02T11:46:26.128Z,40.50
2019-03-02T11:47:52.714Z,46.45
2019-03-02T11:49:38.484Z,42.48
2019-03-02T11:51:05.599Z,40.92
2019-03-02T11:52:38.587Z,36.17
2019-03-02T11:54:15.161Z,39.73
2019-03-02T11:55:38.454Z,39.42
2019-03-02T11:57:22.312Z,36.58
2019-03-02T11:58:48.496Z,44.20
2019-03-02T12:00:12.292Z,41.75
2019-03-02T12:01:45.166Z,32.85
2019-03-02T12:03:17.542Z,36.08
2019-03-02T12:05:02.367Z,41.68
2019-03-02T12:06:32.179Z,37.33
2019-03-02T12:08:00.549Z,39.85
2019-03-02T12:09:20.942Z,36.05
2019-03-02T12:10:53.841Z,33.23
2019-03-02T12:12:13.706Z,32.48
2019-03-02T12:13:47.789Z,36.35
2019-03-02T12:15:21.352Z,37.17
2019-03-02T12:16:43.800Z,32.98
2019-03-02T12:17:56.549Z,36.08
2019-03-02T12:19:19.666Z,35.68
2019-03-02T12:20:49.014Z,32.53
2019-03-02T12:22:06.398Z,34.95
2019-03-02T12:23:37.655Z,37.80
2019-03-02T12:25:04.242Z,37.70
2019-03-02T12:26:33.923Z,35.25
2019-03-02T12:28:00.792Z,33.58
2019-03-02T12:29:31.952Z,31.10
2019-03-02T12:30:59.319Z,39.80
2019-03-02T12:32:11.463Z,32.63
2019-03-02T12:33:40.614Z,37.50
2019-03-02T12:35:06.604Z,36.50
2019-03-02T12:36:29.248Z,36.83
2019-03-02T12:37:51.359Z,32.20
2019-03-02T12:39:19.981Z,39.35
2019-03-02T12:40:41.032Z,34.33
2019-03-02T12:42:13.194Z,44.25
2019-03-02T12:43:44.142Z,29.85
2019-03-02T12:44:59.050Z,36.03
2019-03-02T12:46:19.193Z,34.50
2019-03-02T12:47:58.764Z,32.55
2019-03-02T12:49:13.417Z,29.92
2019-03-02T12:50:44.617Z,28.30
2019-03-02T12:52:21.156Z,34.80
2019-03-02T12:53:44.566Z,34.25
2019-03-02T12:55:20.565Z,32.95
2019-03-02T12:56:42.331Z,35.73
2019-03-02T12:58:12.182Z,37.55
2019-03-02T12:59:42.142Z,38.65
2019-03-02T13:00:57.186Z,35.60
2019-03-02T13:02:26.424Z,34.83
2019-03-02T13:03:50.629Z,29.18
2019-03-02T13:05:21.032Z,41.58
2019-03-02T13:06:46.188Z,31.55
2019-03-02T13:08:00.414Z,43.28
2019-03-02T13:09:20.431Z,30.05
2019-03-02T13:10:43.163Z,30.48
2019-03-02T13:12:12.960Z,37.20
2019-03-02T13:13:47.412Z,33.18
2019-03-02T13:15:23.141Z,35.20
2019-03-02T13:17:13.849Z,42.58
2019-03-02T13:18:32.186Z,27.55
2019-03-02T13:20:05.250Z,27.95
2019-03-02T13:21:35.399Z,35.58
2019-03-02T13:22:58.626Z,28.05
2019-03-02T13:24:26.590Z,32.45
2019-03-02T13:26:13.697Z,45.67
2019-03-02T13:27:30.446Z,30.02
2019-03-02T13:29:16.338Z,30.40
2019-03-02T13:30:29.546Z,40.60
2019-03-02T13:32:03.745Z,31.87
2019-03-02T13:33:30.138Z,29.42
2019-03-02T13:34:58.071Z,27.90
2019-03-02T13:36:16.624Z,24.55
2019-03-02T13:37:36.167Z,19.92
2019-03-02T13:39:06.503Z,25.30
2019-03-02T13:40:37.155Z,36.13
2019-03-02T13:41:48.114Z,40.48
2019-03-02T13:43:07.376Z,43.90
2019-03-02T13:44:38.951Z,37.70
2019-03-02T13:46:02.777Z,45.48
2019-03-02T13:47:27.564Z,41.42
2019-03-02T13:48:50.182Z,41.95
2019-03-02T13:50:35.342Z,34.38
2019-03-02T13:51:59.366Z,31.10
2019-03-02T13:53:23.246Z,36.05
2019-03-02T13:54:43.064Z,35.20
2019-03-02T13:56:22.227Z,31.25
2019-03-02T13:58:00.387Z,30.90
2019-03-02T13:59:45.036Z,29.60
2019-03-02T14:01:01.223Z,27.75
2019-03-02T14:02:23.617Z,31.30
2019-03-02T14:03:56.543Z,25.10
2019-03-02T14:05:26.119Z,26.37
2019-03-02T14:06:57.942Z,24.77
2019-03-02T14:08:30.180Z,24.10
2019-03-02T14:09:52.130Z,30.27
2019-03-02T14:11:24.648Z,28.85
2019-03-02T14:12:54.307Z,35.45
2019-03-02T14:14:13.691Z,37.60
2019-03-02T14:15:47.704Z,47.38
2019-03-02T14:17:22.740Z,33.25
2019-03-02T14:18:39.742Z,25.37
2019-03-02T14:20:11.794Z,44.15
2019-03-02T14:21:39.948Z,35.03
2019-03-02T14:23:12.655Z,26.33
2019-03-02T14:24:37.588Z,27.58
2019-03-02T14:26:02.234Z,27.50
2019-03-02T14:27:37.705Z,20.40
2019-03-02T14:28:57.528Z,26.80
2019-03-02T14:30:12.351Z,29.70
2019-03-02T14:31:44.127Z,44.18
2019-03-02T14:32:58.003Z,35.70
2019-03-02T14:34:25.601Z,30.82
2019-03-02T14:35:40.563Z,40.25
2019-03-02T14:37:12.113Z,34.53
2019-03-02T14:38:27.015Z,29.35
2019-03-02T14:39:57.152Z,27.77
2019-03-02T14:41:35.780Z,29.02
2019-03-02T14:42:58.296Z,32.65
2019-03-02T14:44:23.741Z,38.90
2019-03-02T14:45:47.828Z,43.13
2019-03-02T14:47:25.318Z,35.75
2019-03-02T14:48:46.018Z,28.12
2019-03-02T14:50:24.180Z,34.10
2019-03-02T14:51:46.349Z,17.62
2019-03-02T14:53:09.785Z,19.25
2019-03-02T14:54:32.174Z,21.85
2019-03-02T14:56:01.794Z,28.12
2019-03-02T14:57:26.411Z,17.80
2019-03-02T14:58:46.254Z,18.25
2019-03-02T15:00:15.813Z,19.45
2019-03-02T15:01:52.880Z,32.78
2019-03-02T15:03:24.967Z,28.25
2019-03-02T15:04:51.588Z,23.00
2019-03-02T15:06:20.088Z,34.05
2019-03-02T15:07:50.639Z,43.42
2019-03-02T15:09:23.596Z,58.55
2019-03-02T15:10:52.227Z,36.55
2019-03-02T15:12:19.134Z,129.20
2019-03-02T15:13:36.429Z,49.05
2019-03-02T15:15:16.625Z,39.05
2019-03-02T15:16:38.166Z,28.07
2019-03-02T15:18:02.357Z,17.77
2019-03-02T15:19:27.186Z,14.93
2019-03-02T15:20:53.113Z,24.87
2019-03-02T15:22:09.872Z,19.23
2019-03-02T15:23:22.506Z,21.70
2019-03-02T15:24:53.007Z,34.13
2019-03-02T15:26:18.129Z,55.63
2019-03-02T15:27:44.840Z,23.55